sensor_id;sensor_type;location;lat;lon;timestamp;P1;durP1;ratioP1;P2;durP2;ratioP2
3423;SDS011;72707;50.120;8.500;2024-03-08T00:00:14;227.67;;;66.83;;
3423;SDS011;72707;50.120;8.500;2024-03-08T00:02:43;220.07;;;65.03;;
3423;SDS011;72707;50.120;8.500;2024-03-08T00:05:10;230.70;;;66.97;;
3423;SDS011;72707;50.120;8.500;2024-03-08T00:07:39;221.83;;;62.87;;
3423;SDS011;72707;50.120;8.500;2024-03-08T00:10:08;223.13;;;65.53;;
3423;SDS011;72707;50.120;8.500;2024-03-08T00:12:36;220.27;;;64.50;;
3423;SDS011;72707;50.120;8.500;2024-03-08T00:15:02;229.67;;;68.30;;
3423;SDS011;72707;50.120;8.500;2024-03-08T00:17:28;221.67;;;65.43;;
3423;SDS011;72707;50.120;8.500;2024-03-08T00:19:54;224.37;;;64.37;;
3423;SDS011;72707;50.120;8.500;2024-03-08T00:22:20;227.40;;;66.63;;
3423;SDS011;72707;50.120;8.500;2024-03-08T00:24:47;226.20;;;65.17;;
3423;SDS011;72707;50.120;8.500;2024-03-08T00:27:15;227.97;;;67.47;;
3423;SDS011;72707;50.120;8.500;2024-03-08T00:29:41;224.60;;;65.20;;
3423;SDS011;72707;50.120;8.500;2024-03-08T00:32:07;228.00;;;66.37;;
3423;SDS011;72707;50.120;8.500;2024-03-08T00:34:36;225.33;;;65.63;;
3423;SDS011;72707;50.120;8.500;2024-03-08T00:37:02;221.17;;;65.53;;
3423;SDS011;72707;50.120;8.500;2024-03-08T00:39:28;225.13;;;66.77;;
3423;SDS011;72707;50.120;8.500;2024-03-08T00:41:54;219.43;;;62.77;;
3423;SDS011;72707;50.120;8.500;2024-03-08T00:44:20;217.10;;;64.33;;
3423;SDS011;72707;50.120;8.500;2024-03-08T00:46:46;214.23;;;61.27;;
3423;SDS011;72707;50.120;8.500;2024-03-08T00:49:12;217.80;;;63.50;;
3423;SDS011;72707;50.120;8.500;2024-03-08T00:51:38;220.37;;;64.37;;
3423;SDS011;72707;50.120;8.500;2024-03-08T00:54:04;221.23;;;64.83;;
3423;SDS011;72707;50.120;8.500;2024-03-08T00:56:31;223.13;;;64.73;;
3423;SDS011;72707;50.120;8.500;2024-03-08T00:58:58;220.83;;;64.10;;
3423;SDS011;72707;50.120;8.500;2024-03-08T01:01:25;218.33;;;63.43;;
3423;SDS011;72707;50.120;8.500;2024-03-08T01:03:51;219.90;;;62.97;;
3423;SDS011;72707;50.120;8.500;2024-03-08T01:06:17;215.40;;;63.17;;
3423;SDS011;72707;50.120;8.500;2024-03-08T01:08:43;221.07;;;64.57;;
3423;SDS011;72707;50.120;8.500;2024-03-08T01:11:10;210.27;;;58.77;;
3423;SDS011;72707;50.120;8.500;2024-03-08T01:13:36;218.77;;;61.33;;
3423;SDS011;72707;50.120;8.500;2024-03-08T01:16:02;215.57;;;60.67;;
3423;SDS011;72707;50.120;8.500;2024-03-08T01:18:28;218.13;;;60.30;;
3423;SDS011;72707;50.120;8.500;2024-03-08T01:20:54;213.77;;;59.83;;
3423;SDS011;72707;50.120;8.500;2024-03-08T01:23:20;217.10;;;62.23;;
3423;SDS011;72707;50.120;8.500;2024-03-08T01:25:46;210.13;;;59.03;;
3423;SDS011;72707;50.120;8.500;2024-03-08T01:28:14;212.53;;;61.00;;
3423;SDS011;72707;50.120;8.500;2024-03-08T01:30:39;206.30;;;57.23;;
3423;SDS011;72707;50.120;8.500;2024-03-08T01:33:07;220.60;;;63.43;;
3423;SDS011;72707;50.120;8.500;2024-03-08T01:35:33;218.90;;;62.77;;
3423;SDS011;72707;50.120;8.500;2024-03-08T01:37:59;219.83;;;62.60;;
3423;SDS011;72707;50.120;8.500;2024-03-08T01:40:25;220.17;;;62.47;;
3423;SDS011;72707;50.120;8.500;2024-03-08T01:42:51;226.03;;;64.70;;
3423;SDS011;72707;50.120;8.500;2024-03-08T01:45:18;221.07;;;64.43;;
3423;SDS011;72707;50.120;8.500;2024-03-08T01:47:44;216.30;;;63.77;;
3423;SDS011;72707;50.120;8.500;2024-03-08T01:50:13;214.67;;;64.20;;
3423;SDS011;72707;50.120;8.500;2024-03-08T01:52:40;210.07;;;63.43;;
3423;SDS011;72707;50.120;8.500;2024-03-08T01:55:07;212.07;;;62.77;;
3423;SDS011;72707;50.120;8.500;2024-03-08T01:57:33;214.73;;;61.73;;
3423;SDS011;72707;50.120;8.500;2024-03-08T02:00:00;215.43;;;60.53;;
3423;SDS011;72707;50.120;8.500;2024-03-08T02:02:33;206.37;;;57.90;;
3423;SDS011;72707;50.120;8.500;2024-03-08T02:05:00;214.23;;;60.60;;
3423;SDS011;72707;50.120;8.500;2024-03-08T02:07:26;214.80;;;62.53;;
3423;SDS011;72707;50.120;8.500;2024-03-08T02:09:52;211.27;;;60.57;;
3423;SDS011;72707;50.120;8.500;2024-03-08T02:12:18;210.83;;;62.93;;
3423;SDS011;72707;50.120;8.500;2024-03-08T02:14:48;198.63;;;57.37;;
3423;SDS011;72707;50.120;8.500;2024-03-08T02:17:15;206.53;;;63.00;;
3423;SDS011;72707;50.120;8.500;2024-03-08T02:19:40;199.50;;;58.40;;
3423;SDS011;72707;50.120;8.500;2024-03-08T02:22:06;198.33;;;57.70;;
3423;SDS011;72707;50.120;8.500;2024-03-08T02:24:32;202.00;;;58.60;;
3423;SDS011;72707;50.120;8.500;2024-03-08T02:26:58;203.73;;;57.77;;
3423;SDS011;72707;50.120;8.500;2024-03-08T02:29:24;210.87;;;62.50;;
3423;SDS011;72707;50.120;8.500;2024-03-08T02:31:51;204.33;;;59.30;;
3423;SDS011;72707;50.120;8.500;2024-03-08T02:34:17;192.70;;;55.20;;
3423;SDS011;72707;50.120;8.500;2024-03-08T02:36:43;193.73;;;57.00;;
3423;SDS011;72707;50.120;8.500;2024-03-08T02:39:09;202.77;;;61.13;;
3423;SDS011;72707;50.120;8.500;2024-03-08T02:41:35;196.43;;;57.17;;
3423;SDS011;72707;50.120;8.500;2024-03-08T02:44:01;201.97;;;58.60;;
3423;SDS011;72707;50.120;8.500;2024-03-08T02:46:28;197.53;;;58.00;;
3423;SDS011;72707;50.120;8.500;2024-03-08T02:48:55;211.53;;;62.60;;
3423;SDS011;72707;50.120;8.500;2024-03-08T02:51:21;209.77;;;60.90;;
3423;SDS011;72707;50.120;8.500;2024-03-08T02:53:47;199.70;;;57.57;;
3423;SDS011;72707;50.120;8.500;2024-03-08T02:56:14;200.70;;;56.97;;
3423;SDS011;72707;50.120;8.500;2024-03-08T02:58:41;203.63;;;59.40;;
3423;SDS011;72707;50.120;8.500;2024-03-08T03:01:07;196.07;;;57.77;;
3423;SDS011;72707;50.120;8.500;2024-03-08T03:03:35;200.23;;;58.30;;
3423;SDS011;72707;50.120;8.500;2024-03-08T03:06:01;197.07;;;54.90;;
3423;SDS011;72707;50.120;8.500;2024-03-08T03:08:27;201.83;;;60.07;;
3423;SDS011;72707;50.120;8.500;2024-03-08T03:10:53;191.00;;;55.20;;
3423;SDS011;72707;50.120;8.500;2024-03-08T03:13:21;200.10;;;57.80;;
3423;SDS011;72707;50.120;8.500;2024-03-08T03:15:47;200.73;;;59.57;;
3423;SDS011;72707;50.120;8.500;2024-03-08T03:18:13;193.67;;;55.33;;
3423;SDS011;72707;50.120;8.500;2024-03-08T03:20:39;189.70;;;54.33;;
3423;SDS011;72707;50.120;8.500;2024-03-08T03:23:08;197.30;;;56.83;;
3423;SDS011;72707;50.120;8.500;2024-03-08T03:25:34;198.30;;;58.37;;
3423;SDS011;72707;50.120;8.500;2024-03-08T03:28:03;199.27;;;58.80;;
3423;SDS011;72707;50.120;8.500;2024-03-08T03:30:29;196.67;;;57.57;;
3423;SDS011;72707;50.120;8.500;2024-03-08T03:32:59;206.37;;;61.27;;
3423;SDS011;72707;50.120;8.500;2024-03-08T03:35:35;199.87;;;57.40;;
3423;SDS011;72707;50.120;8.500;2024-03-08T03:38:01;196.73;;;57.43;;
3423;SDS011;72707;50.120;8.500;2024-03-08T03:40:33;199.80;;;59.63;;
3423;SDS011;72707;50.120;8.500;2024-03-08T03:42:59;203.83;;;61.13;;
3423;SDS011;72707;50.120;8.500;2024-03-08T03:45:26;206.93;;;60.67;;
3423;SDS011;72707;50.120;8.500;2024-03-08T03:47:52;201.13;;;62.00;;
3423;SDS011;72707;50.120;8.500;2024-03-08T03:50:18;204.27;;;61.93;;
3423;SDS011;72707;50.120;8.500;2024-03-08T03:52:44;198.33;;;59.13;;
3423;SDS011;72707;50.120;8.500;2024-03-08T03:55:10;205.47;;;61.97;;
3423;SDS011;72707;50.120;8.500;2024-03-08T03:57:37;200.17;;;59.37;;
3423;SDS011;72707;50.120;8.500;2024-03-08T04:00:03;206.27;;;60.93;;
3423;SDS011;72707;50.120;8.500;2024-03-08T04:02:29;195.83;;;57.80;;
3423;SDS011;72707;50.120;8.500;2024-03-08T04:04:55;202.77;;;59.40;;
3423;SDS011;72707;50.120;8.500;2024-03-08T04:07:21;197.97;;;59.60;;
3423;SDS011;72707;50.120;8.500;2024-03-08T04:09:47;195.43;;;57.10;;
3423;SDS011;72707;50.120;8.500;2024-03-08T04:12:13;200.00;;;60.10;;
3423;SDS011;72707;50.120;8.500;2024-03-08T04:14:41;205.13;;;62.20;;
3423;SDS011;72707;50.120;8.500;2024-03-08T04:17:07;195.57;;;57.77;;
3423;SDS011;72707;50.120;8.500;2024-03-08T04:19:38;196.50;;;58.20;;
3423;SDS011;72707;50.120;8.500;2024-03-08T04:22:05;192.27;;;57.10;;
3423;SDS011;72707;50.120;8.500;2024-03-08T04:24:32;195.20;;;60.70;;
3423;SDS011;72707;50.120;8.500;2024-03-08T04:26:58;183.87;;;53.63;;
3423;SDS011;72707;50.120;8.500;2024-03-08T04:29:24;191.00;;;57.47;;
3423;SDS011;72707;50.120;8.500;2024-03-08T04:31:50;200.50;;;59.77;;
3423;SDS011;72707;50.120;8.500;2024-03-08T04:34:19;193.27;;;56.97;;
3423;SDS011;72707;50.120;8.500;2024-03-08T04:36:45;183.77;;;54.57;;
3423;SDS011;72707;50.120;8.500;2024-03-08T04:39:10;189.13;;;58.40;;
3423;SDS011;72707;50.120;8.500;2024-03-08T04:41:38;181.73;;;53.50;;
3423;SDS011;72707;50.120;8.500;2024-03-08T04:44:04;186.33;;;56.07;;
3423;SDS011;72707;50.120;8.500;2024-03-08T04:46:30;194.07;;;57.47;;
3423;SDS011;72707;50.120;8.500;2024-03-08T04:48:55;189.10;;;57.33;;
3423;SDS011;72707;50.120;8.500;2024-03-08T04:51:21;191.17;;;56.30;;
3423;SDS011;72707;50.120;8.500;2024-03-08T04:53:48;190.67;;;58.23;;
3423;SDS011;72707;50.120;8.500;2024-03-08T04:56:14;199.37;;;59.50;;
3423;SDS011;72707;50.120;8.500;2024-03-08T04:58:41;194.40;;;57.30;;
3423;SDS011;72707;50.120;8.500;2024-03-08T05:01:07;187.53;;;56.20;;
3423;SDS011;72707;50.120;8.500;2024-03-08T05:03:35;190.77;;;56.10;;
3423;SDS011;72707;50.120;8.500;2024-03-08T05:06:01;196.03;;;56.13;;
3423;SDS011;72707;50.120;8.500;2024-03-08T05:08:27;183.87;;;55.30;;
3423;SDS011;72707;50.120;8.500;2024-03-08T05:10:53;183.07;;;54.57;;
3423;SDS011;72707;50.120;8.500;2024-03-08T05:13:19;188.53;;;55.77;;
3423;SDS011;72707;50.120;8.500;2024-03-08T05:15:48;197.67;;;57.33;;
3423;SDS011;72707;50.120;8.500;2024-03-08T05:18:15;189.40;;;56.13;;
3423;SDS011;72707;50.120;8.500;2024-03-08T05:20:41;192.90;;;56.17;;
3423;SDS011;72707;50.120;8.500;2024-03-08T05:23:07;195.13;;;58.90;;
3423;SDS011;72707;50.120;8.500;2024-03-08T05:25:33;189.77;;;57.00;;
3423;SDS011;72707;50.120;8.500;2024-03-08T05:27:59;185.07;;;54.87;;
3423;SDS011;72707;50.120;8.500;2024-03-08T05:30:25;192.97;;;57.63;;
3423;SDS011;72707;50.120;8.500;2024-03-08T05:32:51;187.20;;;56.17;;
3423;SDS011;72707;50.120;8.500;2024-03-08T05:35:17;204.20;;;61.60;;
3423;SDS011;72707;50.120;8.500;2024-03-08T05:37:43;189.57;;;57.00;;
3423;SDS011;72707;50.120;8.500;2024-03-08T05:40:09;201.00;;;62.60;;
3423;SDS011;72707;50.120;8.500;2024-03-08T05:42:35;197.27;;;60.10;;
3423;SDS011;72707;50.120;8.500;2024-03-08T05:45:01;191.50;;;56.90;;
3423;SDS011;72707;50.120;8.500;2024-03-08T05:47:27;188.67;;;57.00;;
3423;SDS011;72707;50.120;8.500;2024-03-08T05:49:53;198.17;;;61.10;;
3423;SDS011;72707;50.120;8.500;2024-03-08T05:52:19;194.67;;;57.73;;
3423;SDS011;72707;50.120;8.500;2024-03-08T05:54:46;211.07;;;64.40;;
3423;SDS011;72707;50.120;8.500;2024-03-08T05:57:12;194.80;;;57.33;;
3423;SDS011;72707;50.120;8.500;2024-03-08T05:59:39;194.60;;;58.17;;
3423;SDS011;72707;50.120;8.500;2024-03-08T06:02:05;199.60;;;59.50;;
3423;SDS011;72707;50.120;8.500;2024-03-08T06:04:30;201.43;;;59.70;;
3423;SDS011;72707;50.120;8.500;2024-03-08T06:06:56;198.27;;;60.17;;
3423;SDS011;72707;50.120;8.500;2024-03-08T06:09:23;192.00;;;57.00;;
3423;SDS011;72707;50.120;8.500;2024-03-08T06:11:49;194.30;;;58.00;;
3423;SDS011;72707;50.120;8.500;2024-03-08T06:14:15;192.57;;;56.97;;
3423;SDS011;72707;50.120;8.500;2024-03-08T06:16:46;197.83;;;57.00;;
3423;SDS011;72707;50.120;8.500;2024-03-08T06:19:12;190.33;;;55.43;;
3423;SDS011;72707;50.120;8.500;2024-03-08T06:21:38;200.20;;;59.73;;
3423;SDS011;72707;50.120;8.500;2024-03-08T06:24:04;206.60;;;59.63;;
3423;SDS011;72707;50.120;8.500;2024-03-08T06:26:30;198.00;;;58.23;;
3423;SDS011;72707;50.120;8.500;2024-03-08T06:28:56;194.30;;;57.40;;
3423;SDS011;72707;50.120;8.500;2024-03-08T06:31:22;190.90;;;57.43;;
3423;SDS011;72707;50.120;8.500;2024-03-08T06:33:49;203.07;;;60.97;;
3423;SDS011;72707;50.120;8.500;2024-03-08T06:36:18;199.93;;;57.30;;
3423;SDS011;72707;50.120;8.500;2024-03-08T06:38:46;208.33;;;60.40;;
3423;SDS011;72707;50.120;8.500;2024-03-08T06:41:12;197.87;;;58.70;;
3423;SDS011;72707;50.120;8.500;2024-03-08T06:43:40;194.90;;;57.10;;
3423;SDS011;72707;50.120;8.500;2024-03-08T06:46:06;198.80;;;58.77;;
3423;SDS011;72707;50.120;8.500;2024-03-08T06:48:32;191.77;;;55.47;;
3423;SDS011;72707;50.120;8.500;2024-03-08T06:50:58;202.73;;;63.60;;
3423;SDS011;72707;50.120;8.500;2024-03-08T06:53:24;215.97;;;70.20;;
3423;SDS011;72707;50.120;8.500;2024-03-08T06:55:50;215.60;;;65.40;;
3423;SDS011;72707;50.120;8.500;2024-03-08T06:58:16;214.17;;;62.87;;
3423;SDS011;72707;50.120;8.500;2024-03-08T07:00:42;213.67;;;63.50;;
3423;SDS011;72707;50.120;8.500;2024-03-08T07:03:09;199.27;;;58.23;;
3423;SDS011;72707;50.120;8.500;2024-03-08T07:05:37;201.50;;;58.77;;
3423;SDS011;72707;50.120;8.500;2024-03-08T07:08:05;205.50;;;61.80;;
3423;SDS011;72707;50.120;8.500;2024-03-08T07:10:31;211.20;;;60.90;;
3423;SDS011;72707;50.120;8.500;2024-03-08T07:12:57;208.60;;;60.93;;
3423;SDS011;72707;50.120;8.500;2024-03-08T07:15:23;209.50;;;60.07;;
3423;SDS011;72707;50.120;8.500;2024-03-08T07:17:49;219.97;;;66.30;;
3423;SDS011;72707;50.120;8.500;2024-03-08T07:20:17;213.67;;;62.37;;
3423;SDS011;72707;50.120;8.500;2024-03-08T07:22:44;216.87;;;63.33;;
3423;SDS011;72707;50.120;8.500;2024-03-08T07:25:12;211.70;;;62.13;;
3423;SDS011;72707;50.120;8.500;2024-03-08T07:27:48;214.77;;;63.73;;
3423;SDS011;72707;50.120;8.500;2024-03-08T07:30:14;216.93;;;61.97;;
3423;SDS011;72707;50.120;8.500;2024-03-08T07:32:59;222.13;;;65.43;;
3423;SDS011;72707;50.120;8.500;2024-03-08T07:35:27;229.73;;;68.83;;
3423;SDS011;72707;50.120;8.500;2024-03-08T07:37:56;230.60;;;70.03;;
3423;SDS011;72707;50.120;8.500;2024-03-08T07:40:21;223.63;;;66.77;;
3423;SDS011;72707;50.120;8.500;2024-03-08T07:42:48;229.13;;;69.47;;
3423;SDS011;72707;50.120;8.500;2024-03-08T07:45:14;222.13;;;63.77;;
3423;SDS011;72707;50.120;8.500;2024-03-08T07:47:41;226.17;;;66.80;;
3423;SDS011;72707;50.120;8.500;2024-03-08T07:50:07;224.60;;;65.73;;
3423;SDS011;72707;50.120;8.500;2024-03-08T07:52:35;237.90;;;72.50;;
3423;SDS011;72707;50.120;8.500;2024-03-08T07:55:02;221.23;;;63.47;;
3423;SDS011;72707;50.120;8.500;2024-03-08T07:57:28;224.07;;;65.90;;
3423;SDS011;72707;50.120;8.500;2024-03-08T07:59:55;225.53;;;66.67;;
3423;SDS011;72707;50.120;8.500;2024-03-08T08:02:20;222.67;;;65.43;;
3423;SDS011;72707;50.120;8.500;2024-03-08T08:04:46;226.07;;;65.07;;
3423;SDS011;72707;50.120;8.500;2024-03-08T08:07:12;236.57;;;69.67;;
3423;SDS011;72707;50.120;8.500;2024-03-08T08:09:39;236.20;;;68.73;;
3423;SDS011;72707;50.120;8.500;2024-03-08T08:12:07;229.97;;;66.97;;
3423;SDS011;72707;50.120;8.500;2024-03-08T08:14:36;230.10;;;68.07;;
3423;SDS011;72707;50.120;8.500;2024-03-08T08:17:02;241.03;;;67.90;;
3423;SDS011;72707;50.120;8.500;2024-03-08T08:19:29;229.50;;;66.10;;
3423;SDS011;72707;50.120;8.500;2024-03-08T08:21:55;239.53;;;70.90;;
3423;SDS011;72707;50.120;8.500;2024-03-08T08:24:22;229.13;;;67.27;;
3423;SDS011;72707;50.120;8.500;2024-03-08T08:26:48;240.37;;;68.93;;
3423;SDS011;72707;50.120;8.500;2024-03-08T08:29:14;238.03;;;66.57;;
3423;SDS011;72707;50.120;8.500;2024-03-08T08:31:40;241.30;;;71.50;;
3423;SDS011;72707;50.120;8.500;2024-03-08T08:34:08;241.50;;;67.87;;
3423;SDS011;72707;50.120;8.500;2024-03-08T08:36:34;235.00;;;66.47;;
3423;SDS011;72707;50.120;8.500;2024-03-08T08:39:02;236.30;;;70.83;;
3423;SDS011;72707;50.120;8.500;2024-03-08T08:41:28;240.93;;;70.53;;
3423;SDS011;72707;50.120;8.500;2024-03-08T08:43:54;249.70;;;74.27;;
3423;SDS011;72707;50.120;8.500;2024-03-08T08:46:20;244.30;;;69.57;;
3423;SDS011;72707;50.120;8.500;2024-03-08T08:48:46;241.60;;;67.23;;
3423;SDS011;72707;50.120;8.500;2024-03-08T08:51:12;245.77;;;71.30;;
3423;SDS011;72707;50.120;8.500;2024-03-08T08:53:39;246.97;;;69.67;;
3423;SDS011;72707;50.120;8.500;2024-03-08T08:56:11;253.87;;;73.93;;
3423;SDS011;72707;50.120;8.500;2024-03-08T08:58:40;271.83;;;75.37;;
3423;SDS011;72707;50.120;8.500;2024-03-08T09:01:07;274.00;;;75.43;;
3423;SDS011;72707;50.120;8.500;2024-03-08T09:03:34;272.90;;;74.33;;
3423;SDS011;72707;50.120;8.500;2024-03-08T09:06:01;272.57;;;74.57;;
3423;SDS011;72707;50.120;8.500;2024-03-08T09:08:27;273.63;;;75.07;;
3423;SDS011;72707;50.120;8.500;2024-03-08T09:10:53;262.97;;;69.53;;
3423;SDS011;72707;50.120;8.500;2024-03-08T09:13:19;277.47;;;76.37;;
3423;SDS011;72707;50.120;8.500;2024-03-08T09:15:45;278.27;;;78.53;;
3423;SDS011;72707;50.120;8.500;2024-03-08T09:18:11;276.33;;;77.87;;
3423;SDS011;72707;50.120;8.500;2024-03-08T09:20:37;277.30;;;78.83;;
3423;SDS011;72707;50.120;8.500;2024-03-08T09:23:06;284.47;;;76.33;;
3423;SDS011;72707;50.120;8.500;2024-03-08T09:25:33;275.57;;;77.43;;
3423;SDS011;72707;50.120;8.500;2024-03-08T09:27:59;272.73;;;78.37;;
3423;SDS011;72707;50.120;8.500;2024-03-08T09:30:25;278.27;;;80.57;;
3423;SDS011;72707;50.120;8.500;2024-03-08T09:32:50;282.03;;;81.33;;
3423;SDS011;72707;50.120;8.500;2024-03-08T09:35:16;270.50;;;77.53;;
3423;SDS011;72707;50.120;8.500;2024-03-08T09:37:42;280.30;;;83.07;;
3423;SDS011;72707;50.120;8.500;2024-03-08T09:40:08;278.27;;;85.43;;
3423;SDS011;72707;50.120;8.500;2024-03-08T09:42:35;288.43;;;85.87;;
3423;SDS011;72707;50.120;8.500;2024-03-08T09:45:10;305.63;;;86.10;;
3423;SDS011;72707;50.120;8.500;2024-03-08T09:47:44;276.10;;;82.23;;
3423;SDS011;72707;50.120;8.500;2024-03-08T09:50:10;269.50;;;76.53;;
3423;SDS011;72707;50.120;8.500;2024-03-08T09:52:42;278.83;;;84.20;;
3423;SDS011;72707;50.120;8.500;2024-03-08T09:55:10;299.27;;;87.43;;
3423;SDS011;72707;50.120;8.500;2024-03-08T09:57:37;278.37;;;82.60;;
3423;SDS011;72707;50.120;8.500;2024-03-08T10:00:03;277.37;;;84.70;;
3423;SDS011;72707;50.120;8.500;2024-03-08T10:02:49;283.67;;;84.83;;
3423;SDS011;72707;50.120;8.500;2024-03-08T10:05:17;288.30;;;85.90;;
3423;SDS011;72707;50.120;8.500;2024-03-08T10:07:43;280.87;;;86.47;;
3423;SDS011;72707;50.120;8.500;2024-03-08T10:10:09;283.23;;;86.10;;
3423;SDS011;72707;50.120;8.500;2024-03-08T10:12:37;287.00;;;90.57;;
3423;SDS011;72707;50.120;8.500;2024-03-08T10:15:05;282.60;;;87.83;;
3423;SDS011;72707;50.120;8.500;2024-03-08T10:17:33;284.40;;;87.47;;
3423;SDS011;72707;50.120;8.500;2024-03-08T10:19:59;284.57;;;88.30;;
3423;SDS011;72707;50.120;8.500;2024-03-08T10:22:26;290.13;;;94.40;;
3423;SDS011;72707;50.120;8.500;2024-03-08T10:24:54;291.80;;;96.30;;
3423;SDS011;72707;50.120;8.500;2024-03-08T10:27:20;290.23;;;96.97;;
3423;SDS011;72707;50.120;8.500;2024-03-08T10:29:49;300.87;;;100.97;;
3423;SDS011;72707;50.120;8.500;2024-03-08T10:32:16;285.10;;;94.73;;
3423;SDS011;72707;50.120;8.500;2024-03-08T10:34:42;282.33;;;96.67;;
3423;SDS011;72707;50.120;8.500;2024-03-08T10:37:11;301.77;;;99.87;;
3423;SDS011;72707;50.120;8.500;2024-03-08T10:39:42;290.60;;;95.53;;
3423;SDS011;72707;50.120;8.500;2024-03-08T10:42:16;288.17;;;94.63;;
3423;SDS011;72707;50.120;8.500;2024-03-08T10:44:58;289.53;;;99.87;;
3423;SDS011;72707;50.120;8.500;2024-03-08T10:47:38;280.90;;;92.73;;
3423;SDS011;72707;50.120;8.500;2024-03-08T10:50:19;296.00;;;97.00;;
3423;SDS011;72707;50.120;8.500;2024-03-08T10:52:50;290.60;;;96.73;;
3423;SDS011;72707;50.120;8.500;2024-03-08T10:55:19;294.87;;;97.17;;
3423;SDS011;72707;50.120;8.500;2024-03-08T10:57:46;294.23;;;101.63;;
3423;SDS011;72707;50.120;8.500;2024-03-08T11:00:16;288.73;;;96.10;;
3423;SDS011;72707;50.120;8.500;2024-03-08T11:02:44;288.73;;;98.10;;
3423;SDS011;72707;50.120;8.500;2024-03-08T11:05:10;294.57;;;100.27;;
3423;SDS011;72707;50.120;8.500;2024-03-08T11:07:40;290.73;;;98.30;;
3423;SDS011;72707;50.120;8.500;2024-03-08T11:10:17;296.87;;;102.57;;
3423;SDS011;72707;50.120;8.500;2024-03-08T11:12:45;282.47;;;93.93;;
3423;SDS011;72707;50.120;8.500;2024-03-08T11:15:11;289.90;;;100.13;;
3423;SDS011;72707;50.120;8.500;2024-03-08T11:20:13;292.47;;;98.10;;
3423;SDS011;72707;50.120;8.500;2024-03-08T11:22:49;294.93;;;101.03;;
3423;SDS011;72707;50.120;8.500;2024-03-08T11:25:39;293.00;;;97.97;;
3423;SDS011;72707;50.120;8.500;2024-03-08T11:30:47;290.73;;;98.67;;
3423;SDS011;72707;50.120;8.500;2024-03-08T11:33:34;285.40;;;97.53;;
3423;SDS011;72707;50.120;8.500;2024-03-08T11:38:39;294.90;;;104.67;;
3423;SDS011;72707;50.120;8.500;2024-03-08T11:41:06;292.20;;;106.40;;
3423;SDS011;72707;50.120;8.500;2024-03-08T11:43:33;289.70;;;103.60;;
3423;SDS011;72707;50.120;8.500;2024-03-08T11:46:16;293.60;;;103.97;;
3423;SDS011;72707;50.120;8.500;2024-03-08T11:48:42;302.20;;;107.97;;
3423;SDS011;72707;50.120;8.500;2024-03-08T11:51:12;306.30;;;111.37;;
3423;SDS011;72707;50.120;8.500;2024-03-08T11:53:38;305.50;;;112.93;;
3423;SDS011;72707;50.120;8.500;2024-03-08T11:56:09;309.50;;;119.17;;
3423;SDS011;72707;50.120;8.500;2024-03-08T11:58:36;315.17;;;122.03;;
3423;SDS011;72707;50.120;8.500;2024-03-08T12:01:05;325.50;;;123.40;;
3423;SDS011;72707;50.120;8.500;2024-03-08T12:03:32;325.43;;;130.77;;
3423;SDS011;72707;50.120;8.500;2024-03-08T12:05:59;319.23;;;140.60;;
3423;SDS011;72707;50.120;8.500;2024-03-08T12:08:25;307.30;;;144.27;;
3423;SDS011;72707;50.120;8.500;2024-03-08T12:10:54;308.70;;;146.37;;
3423;SDS011;72707;50.120;8.500;2024-03-08T12:13:25;316.87;;;150.90;;
3423;SDS011;72707;50.120;8.500;2024-03-08T12:15:54;317.03;;;152.93;;
3423;SDS011;72707;50.120;8.500;2024-03-08T12:18:20;325.33;;;163.93;;
3423;SDS011;72707;50.120;8.500;2024-03-08T12:20:45;318.73;;;170.03;;
3423;SDS011;72707;50.120;8.500;2024-03-08T12:23:14;326.00;;;182.57;;
3423;SDS011;72707;50.120;8.500;2024-03-08T12:25:41;328.43;;;179.97;;
3423;SDS011;72707;50.120;8.500;2024-03-08T12:28:08;321.37;;;173.20;;
3423;SDS011;72707;50.120;8.500;2024-03-08T12:30:50;310.90;;;159.17;;
3423;SDS011;72707;50.120;8.500;2024-03-08T12:33:19;322.43;;;160.10;;
3423;SDS011;72707;50.120;8.500;2024-03-08T12:35:51;325.20;;;168.13;;
3423;SDS011;72707;50.120;8.500;2024-03-08T12:38:21;313.10;;;163.03;;
3423;SDS011;72707;50.120;8.500;2024-03-08T12:40:56;320.23;;;174.83;;
3423;SDS011;72707;50.120;8.500;2024-03-08T12:43:23;316.63;;;178.50;;
3423;SDS011;72707;50.120;8.500;2024-03-08T12:45:49;320.10;;;196.87;;
3423;SDS011;72707;50.120;8.500;2024-03-08T12:48:16;318.97;;;197.40;;
3423;SDS011;72707;50.120;8.500;2024-03-08T12:50:42;319.43;;;188.63;;
3423;SDS011;72707;50.120;8.500;2024-03-08T12:53:13;318.53;;;195.07;;
3423;SDS011;72707;50.120;8.500;2024-03-08T12:55:39;318.77;;;193.47;;
3423;SDS011;72707;50.120;8.500;2024-03-08T12:58:05;321.93;;;198.20;;
3423;SDS011;72707;50.120;8.500;2024-03-08T13:00:32;319.10;;;198.53;;
3423;SDS011;72707;50.120;8.500;2024-03-08T13:03:01;331.67;;;205.53;;
3423;SDS011;72707;50.120;8.500;2024-03-08T13:05:27;322.50;;;208.00;;
3423;SDS011;72707;50.120;8.500;2024-03-08T13:07:53;343.93;;;233.47;;
3423;SDS011;72707;50.120;8.500;2024-03-08T13:10:19;381.07;;;257.73;;
3423;SDS011;72707;50.120;8.500;2024-03-08T13:12:46;349.77;;;247.83;;
3423;SDS011;72707;50.120;8.500;2024-03-08T13:15:11;342.27;;;261.87;;
3423;SDS011;72707;50.120;8.500;2024-03-08T13:17:44;348.03;;;263.27;;
3423;SDS011;72707;50.120;8.500;2024-03-08T13:20:11;338.65;;;264.92;;
3423;SDS011;72707;50.120;8.500;2024-03-08T13:22:41;348.40;;;268.57;;
3423;SDS011;72707;50.120;8.500;2024-03-08T13:25:07;337.13;;;280.00;;
3423;SDS011;72707;50.120;8.500;2024-03-08T13:27:38;331.05;;;268.42;;
3423;SDS011;72707;50.120;8.500;2024-03-08T13:30:10;344.67;;;287.13;;
3423;SDS011;72707;50.120;8.500;2024-03-08T13:32:43;339.83;;;283.43;;
3423;SDS011;72707;50.120;8.500;2024-03-08T13:35:09;334.45;;;269.52;;
3423;SDS011;72707;50.120;8.500;2024-03-08T13:37:39;335.47;;;262.10;;
3423;SDS011;72707;50.120;8.500;2024-03-08T13:40:05;330.83;;;253.37;;
3423;SDS011;72707;50.120;8.500;2024-03-08T13:42:31;333.40;;;253.57;;
3423;SDS011;72707;50.120;8.500;2024-03-08T13:44:56;325.90;;;228.07;;
3423;SDS011;72707;50.120;8.500;2024-03-08T13:47:22;319.83;;;220.47;;
3423;SDS011;72707;50.120;8.500;2024-03-08T13:49:49;344.93;;;239.07;;
3423;SDS011;72707;50.120;8.500;2024-03-08T13:52:15;345.00;;;259.00;;
3423;SDS011;72707;50.120;8.500;2024-03-08T13:54:41;333.73;;;251.50;;
3423;SDS011;72707;50.120;8.500;2024-03-08T13:57:07;348.67;;;268.47;;
3423;SDS011;72707;50.120;8.500;2024-03-08T13:59:33;330.30;;;259.67;;
3423;SDS011;72707;50.120;8.500;2024-03-08T14:02:00;322.80;;;237.17;;
3423;SDS011;72707;50.120;8.500;2024-03-08T14:04:27;337.10;;;264.07;;
3423;SDS011;72707;50.120;8.500;2024-03-08T14:06:57;328.77;;;244.97;;
3423;SDS011;72707;50.120;8.500;2024-03-08T14:09:28;335.60;;;264.70;;
3423;SDS011;72707;50.120;8.500;2024-03-08T14:11:54;345.88;;;282.30;;
3423;SDS011;72707;50.120;8.500;2024-03-08T14:14:20;341.33;;;283.77;;
3423;SDS011;72707;50.120;8.500;2024-03-08T14:16:48;352.05;;;302.85;;
3423;SDS011;72707;50.120;8.500;2024-03-08T14:19:14;342.80;;;287.02;;
3423;SDS011;72707;50.120;8.500;2024-03-08T14:21:40;349.50;;;298.80;;
3423;SDS011;72707;50.120;8.500;2024-03-08T14:24:07;345.23;;;297.05;;
3423;SDS011;72707;50.120;8.500;2024-03-08T14:26:32;352.60;;;298.57;;